Main page
METAR-TAF:

METAR-TAF

Airports :

Munich Airport

Munich, Germany

latitude: 48-21N, longitude: 011-47E, elevation: 453 m

Current weather observation

The report was made 54 minutes ago, at 00:20 UTC
Wind 5 kt from the Northeast
Temperature 16°C
Humidity 77%
Pressure 1016 hPa
Visibility 10 km or more
no clouds below 1500 m and no cumulonimbus

METAR: EDDM 250020Z AUTO 04005KT CAVOK 16/12 Q1016 NOSIG

Time: 03:14 (01:14 UTC)

Forecast

The report was made 2 hours and 14 minutes ago, at 23:00 UTC
Forecast valid from 25 at 00 UTC to 26 at 06 UTC
Wind 5 kt from the Northeast
Visibility 10 km or more
no clouds below 1500 m and no cumulonimbus
Becoming
from 25 at 07 UTC to 25 at 09 UTC
Wind 10 kt from the East/Northeast
Becoming
from 25 at 19 UTC to 25 at 21 UTC
Wind 3 kt from variable directions

TAF: EDDM 242300Z 2500/2606 04005KT CAVOK BECMG 2507/2509 07010KT BECMG 2519/2521 VRB03KT

Weather observations and forecasts of more than 4000 airports (METAR and TAF reports).

The available stations are represented by yellow and red dots on the map.

Hover mouse over dot to see the name of the station.

Then click to see weather observations and forecasts.

To change the map : click on the green buttons with a black cross to zoom in, on the green button with a dash to zoom out, or on the green arrows for adjacent maps.


METAR-TAF: